Mascotte, Florida
Current Conditions -  °F | °C
As of 10:53 AM on Monday 22 Dec 2014 (Local Time) from KLEE Reporting Station
Clear Clear  
Wind Chill: 71°   Ceiling: Unl
Heat Index: 71°   Visibility: 10mi
Dew Point: 66°   Wind: 5mph
Humidity: 84%   Direction: NA
Pressure: 30.02"   Gusts: NA
Location:  28.58°N, 81.89°W
Report Text: KLEE 221553Z VRB04KT 10SM CLR 22/19 A3002 RMK AO2 SLP164 T02170189
Loading
Personal Weather Stations






























Interactive Weather Map New forecast layout! Learn more

10-Day Weather Forecast

Advertisements
Track Severe Weather on mobile